Terminal Aerodrome Forecast
Issued by NWS

Home | Current Version | Previous Version | Graphics & Text | Print | Product List | Glossary On
Versions: 1 2 3 4 5 6 7 8 9 10 11 12 13
481
FTUS45 KGGW 080523
TAFSDY
TAF
KSDY 080523Z 0806/0906 29013KT P6SM SCT020 BKN050
     FM081800 29007KT P6SM BKN020
     FM090100 VRB03KT P6SM SCT020 BKN200=

USA.gov is the U.S. government's official web portal to all federal, state and local government web resources and services.